Terminal Aerodrome Forecast
Issued by NWS

Home | Current Version | Previous Version | Text Only | Print | Product List | Glossary On
Versions: 1 2 3 4 5 6 7 8 9 10 11 12 13 14 15 16 17 18 19 20
000
FTUS46 KSEW 222300 RRA
TAFPAE
TAF
KPAE 222350Z 2300/2324 15010KT P6SM -RA FEW012 SCT028 OVC050
      TEMPO 2300/2302 5SM -RA BR FEW012 BKN028 OVC050
     FM230200 15010KT 4SM -RA BR FEW008 BKN012 OVC028
     FM230600 18013KT P6SM -SHRA SCT012 BKN028 OVC050
     FM232100 18013KT P6SM -SHRA SCT028 BKN050 BKN090 PROB30
      2321/2324 5SM TSRA OVC022CB=

USA.gov is the U.S. government's official web portal to all federal, state and local government web resources and services.